sensor_id;sensor_type;location;lat;lon;timestamp;P1;durP1;ratioP1;P2;durP2;ratioP2
75218;SDS011;63801;49.414;19.474;2023-02-18T00:01:10;7.57;;;4.93;;
75218;SDS011;63801;49.414;19.474;2023-02-18T00:03:12;8.95;;;4.68;;
75218;SDS011;63801;49.414;19.474;2023-02-18T00:05:12;8.30;;;4.80;;
75218;SDS011;63801;49.414;19.474;2023-02-18T00:07:13;7.15;;;4.45;;
75218;SDS011;63801;49.414;19.474;2023-02-18T00:09:14;7.45;;;4.07;;
75218;SDS011;63801;49.414;19.474;2023-02-18T00:11:15;9.27;;;4.30;;
75218;SDS011;63801;49.414;19.474;2023-02-18T00:13:16;6.25;;;4.03;;
75218;SDS011;63801;49.414;19.474;2023-02-18T00:15:16;6.22;;;4.03;;
75218;SDS011;63801;49.414;19.474;2023-02-18T00:17:16;6.57;;;3.60;;
75218;SDS011;63801;49.414;19.474;2023-02-18T00:19:17;7.22;;;4.03;;
75218;SDS011;63801;49.414;19.474;2023-02-18T00:21:19;7.10;;;4.07;;
75218;SDS011;63801;49.414;19.474;2023-02-18T00:23:19;5.55;;;3.78;;
75218;SDS011;63801;49.414;19.474;2023-02-18T00:25:19;5.45;;;3.38;;
75218;SDS011;63801;49.414;19.474;2023-02-18T00:27:20;6.68;;;4.07;;
75218;SDS011;63801;49.414;19.474;2023-02-18T00:29:20;7.90;;;4.30;;
75218;SDS011;63801;49.414;19.474;2023-02-18T00:31:22;7.50;;;3.90;;
75218;SDS011;63801;49.414;19.474;2023-02-18T00:33:24;9.52;;;4.30;;
75218;SDS011;63801;49.414;19.474;2023-02-18T00:35:24;8.35;;;4.55;;
75218;SDS011;63801;49.414;19.474;2023-02-18T00:37:24;7.25;;;4.55;;
75218;SDS011;63801;49.414;19.474;2023-02-18T00:39:25;6.88;;;4.30;;
75218;SDS011;63801;49.414;19.474;2023-02-18T00:41:26;6.93;;;4.15;;
75218;SDS011;63801;49.414;19.474;2023-02-18T00:43:27;6.50;;;3.63;;
75218;SDS011;63801;49.414;19.474;2023-02-18T00:45:28;6.40;;;3.38;;
75218;SDS011;63801;49.414;19.474;2023-02-18T00:47:28;7.32;;;3.58;;
75218;SDS011;63801;49.414;19.474;2023-02-18T00:49:29;6.05;;;3.17;;
75218;SDS011;63801;49.414;19.474;2023-02-18T00:51:29;5.60;;;2.95;;
75218;SDS011;63801;49.414;19.474;2023-02-18T00:53:29;5.85;;;3.40;;
75218;SDS011;63801;49.414;19.474;2023-02-18T00:55:30;6.00;;;3.10;;
75218;SDS011;63801;49.414;19.474;2023-02-18T00:57:30;4.43;;;2.30;;
75218;SDS011;63801;49.414;19.474;2023-02-18T00:59:31;6.40;;;2.95;;
75218;SDS011;63801;49.414;19.474;2023-02-18T01:01:31;6.63;;;3.00;;
75218;SDS011;63801;49.414;19.474;2023-02-18T01:03:31;6.55;;;3.50;;
75218;SDS011;63801;49.414;19.474;2023-02-18T01:05:32;7.07;;;3.63;;
75218;SDS011;63801;49.414;19.474;2023-02-18T01:07:32;5.35;;;2.97;;
75218;SDS011;63801;49.414;19.474;2023-02-18T01:09:33;4.90;;;2.50;;
75218;SDS011;63801;49.414;19.474;2023-02-18T01:11:33;5.03;;;2.95;;
75218;SDS011;63801;49.414;19.474;2023-02-18T01:13:34;5.05;;;2.70;;
75218;SDS011;63801;49.414;19.474;2023-02-18T01:15:34;4.63;;;2.38;;
75218;SDS011;63801;49.414;19.474;2023-02-18T01:17:35;6.25;;;2.63;;
75218;SDS011;63801;49.414;19.474;2023-02-18T01:19:35;4.97;;;2.80;;
75218;SDS011;63801;49.414;19.474;2023-02-18T01:21:35;4.57;;;2.10;;
75218;SDS011;63801;49.414;19.474;2023-02-18T01:23:39;4.60;;;2.35;;
75218;SDS011;63801;49.414;19.474;2023-02-18T01:25:40;4.93;;;2.42;;
75218;SDS011;63801;49.414;19.474;2023-02-18T01:27:41;6.03;;;2.30;;
75218;SDS011;63801;49.414;19.474;2023-02-18T01:29:41;5.35;;;2.20;;
75218;SDS011;63801;49.414;19.474;2023-02-18T01:31:42;4.22;;;2.10;;
75218;SDS011;63801;49.414;19.474;2023-02-18T01:33:42;3.80;;;2.17;;
75218;SDS011;63801;49.414;19.474;2023-02-18T01:35:43;5.15;;;2.40;;
75218;SDS011;63801;49.414;19.474;2023-02-18T01:37:43;3.53;;;2.17;;
75218;SDS011;63801;49.414;19.474;2023-02-18T01:39:44;3.53;;;2.05;;
75218;SDS011;63801;49.414;19.474;2023-02-18T01:41:44;6.03;;;2.80;;
75218;SDS011;63801;49.414;19.474;2023-02-18T01:43:45;2.83;;;2.00;;
75218;SDS011;63801;49.414;19.474;2023-02-18T01:45:50;5.50;;;2.60;;
75218;SDS011;63801;49.414;19.474;2023-02-18T01:47:51;5.78;;;2.83;;
75218;SDS011;63801;49.414;19.474;2023-02-18T01:49:51;4.95;;;2.47;;
75218;SDS011;63801;49.414;19.474;2023-02-18T01:52:02;4.53;;;2.42;;
75218;SDS011;63801;49.414;19.474;2023-02-18T01:56:07;6.37;;;2.60;;
75218;SDS011;63801;49.414;19.474;2023-02-18T01:58:12;5.13;;;2.85;;
75218;SDS011;63801;49.414;19.474;2023-02-18T02:00:15;4.30;;;2.47;;
75218;SDS011;63801;49.414;19.474;2023-02-18T02:02:21;4.25;;;2.45;;
75218;SDS011;63801;49.414;19.474;2023-02-18T02:04:23;3.97;;;2.00;;
75218;SDS011;63801;49.414;19.474;2023-02-18T02:06:24;3.22;;;1.85;;
75218;SDS011;63801;49.414;19.474;2023-02-18T02:08:25;3.83;;;2.15;;
75218;SDS011;63801;49.414;19.474;2023-02-18T02:10:29;4.10;;;1.98;;
75218;SDS011;63801;49.414;19.474;2023-02-18T02:22:23;5.03;;;2.70;;
75218;SDS011;63801;49.414;19.474;2023-02-18T02:24:53;3.47;;;2.30;;
75218;SDS011;63801;49.414;19.474;2023-02-18T02:27:03;5.40;;;3.00;;
75218;SDS011;63801;49.414;19.474;2023-02-18T02:36:20;6.20;;;3.40;;
75218;SDS011;63801;49.414;19.474;2023-02-18T02:43:25;6.43;;;3.65;;
75218;SDS011;63801;49.414;19.474;2023-02-18T02:48:26;7.90;;;3.55;;
75218;SDS011;63801;49.414;19.474;2023-02-18T02:50:39;6.15;;;3.55;;
75218;SDS011;63801;49.414;19.474;2023-02-18T02:52:49;5.63;;;3.35;;
75218;SDS011;63801;49.414;19.474;2023-02-18T02:54:53;8.45;;;4.07;;
75218;SDS011;63801;49.414;19.474;2023-02-18T02:57:04;7.93;;;3.70;;
75218;SDS011;63801;49.414;19.474;2023-02-18T02:59:27;9.60;;;4.68;;
75218;SDS011;63801;49.414;19.474;2023-02-18T03:06:31;7.63;;;4.43;;
75218;SDS011;63801;49.414;19.474;2023-02-18T03:11:12;8.00;;;4.63;;
75218;SDS011;63801;49.414;19.474;2023-02-18T03:18:33;8.40;;;4.75;;
75218;SDS011;63801;49.414;19.474;2023-02-18T03:20:56;8.90;;;5.18;;
75218;SDS011;63801;49.414;19.474;2023-02-18T03:23:03;11.55;;;5.88;;
75218;SDS011;63801;49.414;19.474;2023-02-18T03:25:09;11.60;;;5.57;;
75218;SDS011;63801;49.414;19.474;2023-02-18T03:29:58;9.82;;;6.20;;
75218;SDS011;63801;49.414;19.474;2023-02-18T03:32:04;12.32;;;6.25;;
75218;SDS011;63801;49.414;19.474;2023-02-18T03:34:10;12.00;;;6.22;;
75218;SDS011;63801;49.414;19.474;2023-02-18T03:36:15;13.82;;;7.25;;
75218;SDS011;63801;49.414;19.474;2023-02-18T03:38:18;12.00;;;6.63;;
75218;SDS011;63801;49.414;19.474;2023-02-18T03:40:32;13.25;;;7.07;;
75218;SDS011;63801;49.414;19.474;2023-02-18T03:42:42;11.35;;;7.20;;
75218;SDS011;63801;49.414;19.474;2023-02-18T03:44:48;12.77;;;7.03;;
75218;SDS011;63801;49.414;19.474;2023-02-18T03:46:52;11.60;;;6.80;;
75218;SDS011;63801;49.414;19.474;2023-02-18T03:48:55;14.30;;;7.43;;
75218;SDS011;63801;49.414;19.474;2023-02-18T03:50:55;14.55;;;8.07;;
75218;SDS011;63801;49.414;19.474;2023-02-18T03:52:56;16.48;;;8.55;;
75218;SDS011;63801;49.414;19.474;2023-02-18T03:55:03;13.45;;;7.50;;
75218;SDS011;63801;49.414;19.474;2023-02-18T03:57:04;17.02;;;8.52;;
75218;SDS011;63801;49.414;19.474;2023-02-18T03:59:13;32.85;;;14.48;;
75218;SDS011;63801;49.414;19.474;2023-02-18T04:01:23;14.82;;;7.80;;
75218;SDS011;63801;49.414;19.474;2023-02-18T04:03:23;15.88;;;9.13;;
75218;SDS011;63801;49.414;19.474;2023-02-18T04:05:26;14.73;;;8.32;;
75218;SDS011;63801;49.414;19.474;2023-02-18T04:07:27;14.20;;;7.53;;
75218;SDS011;63801;49.414;19.474;2023-02-18T04:09:28;13.93;;;7.30;;
75218;SDS011;63801;49.414;19.474;2023-02-18T04:11:28;19.15;;;9.68;;
75218;SDS011;63801;49.414;19.474;2023-02-18T04:13:28;16.42;;;8.95;;
75218;SDS011;63801;49.414;19.474;2023-02-18T04:15:29;15.88;;;9.18;;
75218;SDS011;63801;49.414;19.474;2023-02-18T04:17:29;13.77;;;8.13;;
75218;SDS011;63801;49.414;19.474;2023-02-18T04:19:31;15.40;;;8.40;;
75218;SDS011;63801;49.414;19.474;2023-02-18T04:21:38;13.07;;;7.90;;
75218;SDS011;63801;49.414;19.474;2023-02-18T04:23:38;14.48;;;7.57;;
75218;SDS011;63801;49.414;19.474;2023-02-18T04:25:45;13.88;;;7.38;;
75218;SDS011;63801;49.414;19.474;2023-02-18T04:27:45;12.63;;;7.47;;
75218;SDS011;63801;49.414;19.474;2023-02-18T04:29:52;13.27;;;7.30;;
75218;SDS011;63801;49.414;19.474;2023-02-18T04:31:52;12.02;;;7.00;;
75218;SDS011;63801;49.414;19.474;2023-02-18T04:33:52;13.20;;;6.55;;
75218;SDS011;63801;49.414;19.474;2023-02-18T04:35:53;11.13;;;6.28;;
75218;SDS011;63801;49.414;19.474;2023-02-18T04:37:53;19.30;;;10.65;;
75218;SDS011;63801;49.414;19.474;2023-02-18T04:39:53;12.07;;;7.18;;
75218;SDS011;63801;49.414;19.474;2023-02-18T04:41:54;12.38;;;6.18;;
75218;SDS011;63801;49.414;19.474;2023-02-18T04:43:54;11.27;;;6.32;;
75218;SDS011;63801;49.414;19.474;2023-02-18T04:45:54;10.85;;;6.13;;
75218;SDS011;63801;49.414;19.474;2023-02-18T04:47:55;13.35;;;7.38;;
75218;SDS011;63801;49.414;19.474;2023-02-18T04:49:55;11.27;;;6.28;;
75218;SDS011;63801;49.414;19.474;2023-02-18T04:51:55;10.05;;;5.82;;
75218;SDS011;63801;49.414;19.474;2023-02-18T04:53:56;9.52;;;5.65;;
75218;SDS011;63801;49.414;19.474;2023-02-18T04:55:56;11.23;;;6.32;;
75218;SDS011;63801;49.414;19.474;2023-02-18T04:57:57;13.25;;;6.90;;
75218;SDS011;63801;49.414;19.474;2023-02-18T05:00:00;11.70;;;6.55;;
75218;SDS011;63801;49.414;19.474;2023-02-18T05:02:03;11.27;;;6.10;;
75218;SDS011;63801;49.414;19.474;2023-02-18T05:04:04;15.15;;;7.95;;
75218;SDS011;63801;49.414;19.474;2023-02-18T05:06:04;12.40;;;6.53;;
75218;SDS011;63801;49.414;19.474;2023-02-18T05:08:11;10.48;;;6.53;;
75218;SDS011;63801;49.414;19.474;2023-02-18T05:10:14;12.23;;;6.75;;
75218;SDS011;63801;49.414;19.474;2023-02-18T05:12:15;12.93;;;6.53;;
75218;SDS011;63801;49.414;19.474;2023-02-18T05:14:16;11.25;;;6.30;;
75218;SDS011;63801;49.414;19.474;2023-02-18T05:16:16;12.05;;;6.57;;
75218;SDS011;63801;49.414;19.474;2023-02-18T05:18:16;12.57;;;7.18;;
75218;SDS011;63801;49.414;19.474;2023-02-18T05:20:17;12.73;;;6.68;;
75218;SDS011;63801;49.414;19.474;2023-02-18T05:22:17;13.15;;;7.68;;
75218;SDS011;63801;49.414;19.474;2023-02-18T05:24:18;13.27;;;7.55;;
75218;SDS011;63801;49.414;19.474;2023-02-18T05:26:24;14.20;;;7.78;;
75218;SDS011;63801;49.414;19.474;2023-02-18T05:28:24;12.88;;;7.07;;
75218;SDS011;63801;49.414;19.474;2023-02-18T05:30:25;15.32;;;7.93;;
75218;SDS011;63801;49.414;19.474;2023-02-18T05:32:25;12.05;;;7.10;;
75218;SDS011;63801;49.414;19.474;2023-02-18T05:34:25;13.23;;;6.90;;
75218;SDS011;63801;49.414;19.474;2023-02-18T05:36:26;13.38;;;7.65;;
75218;SDS011;63801;49.414;19.474;2023-02-18T05:38:26;12.80;;;7.25;;
75218;SDS011;63801;49.414;19.474;2023-02-18T05:40:26;11.68;;;7.07;;
75218;SDS011;63801;49.414;19.474;2023-02-18T05:42:27;20.50;;;10.30;;
75218;SDS011;63801;49.414;19.474;2023-02-18T05:44:27;16.20;;;8.50;;
75218;SDS011;63801;49.414;19.474;2023-02-18T05:46:36;22.15;;;9.60;;
75218;SDS011;63801;49.414;19.474;2023-02-18T05:48:36;23.10;;;9.32;;
75218;SDS011;63801;49.414;19.474;2023-02-18T05:50:37;24.20;;;9.73;;
75218;SDS011;63801;49.414;19.474;2023-02-18T05:52:37;15.35;;;7.35;;
75218;SDS011;63801;49.414;19.474;2023-02-18T05:54:38;11.85;;;6.60;;
75218;SDS011;63801;49.414;19.474;2023-02-18T05:56:39;11.55;;;6.50;;
75218;SDS011;63801;49.414;19.474;2023-02-18T05:58:39;10.73;;;6.68;;
75218;SDS011;63801;49.414;19.474;2023-02-18T06:00:45;11.02;;;6.32;;
75218;SDS011;63801;49.414;19.474;2023-02-18T06:02:46;10.25;;;5.80;;
75218;SDS011;63801;49.414;19.474;2023-02-18T06:04:46;12.07;;;6.20;;
75218;SDS011;63801;49.414;19.474;2023-02-18T06:06:55;11.82;;;6.25;;
75218;SDS011;63801;49.414;19.474;2023-02-18T06:09:02;10.40;;;7.22;;
75218;SDS011;63801;49.414;19.474;2023-02-18T06:11:06;11.68;;;8.25;;
75218;SDS011;63801;49.414;19.474;2023-02-18T06:13:09;13.40;;;6.43;;
75218;SDS011;63801;49.414;19.474;2023-02-18T06:15:10;10.15;;;5.68;;
75218;SDS011;63801;49.414;19.474;2023-02-18T06:17:11;9.57;;;5.82;;
75218;SDS011;63801;49.414;19.474;2023-02-18T06:19:12;11.55;;;5.15;;
75218;SDS011;63801;49.414;19.474;2023-02-18T06:21:21;11.70;;;5.95;;
75218;SDS011;63801;49.414;19.474;2023-02-18T06:23:22;11.30;;;5.88;;
75218;SDS011;63801;49.414;19.474;2023-02-18T06:25:22;12.93;;;6.40;;
75218;SDS011;63801;49.414;19.474;2023-02-18T06:27:22;13.50;;;6.53;;
75218;SDS011;63801;49.414;19.474;2023-02-18T06:29:23;20.65;;;7.68;;
75218;SDS011;63801;49.414;19.474;2023-02-18T06:31:23;14.50;;;6.20;;
75218;SDS011;63801;49.414;19.474;2023-02-18T06:33:24;9.95;;;5.82;;
75218;SDS011;63801;49.414;19.474;2023-02-18T06:35:30;9.43;;;4.70;;
75218;SDS011;63801;49.414;19.474;2023-02-18T06:37:31;10.05;;;5.43;;
75218;SDS011;63801;49.414;19.474;2023-02-18T06:39:32;11.68;;;5.50;;
75218;SDS011;63801;49.414;19.474;2023-02-18T06:41:32;9.68;;;4.90;;
75218;SDS011;63801;49.414;19.474;2023-02-18T06:43:33;9.68;;;6.10;;
75218;SDS011;63801;49.414;19.474;2023-02-18T06:45:42;9.63;;;5.13;;
75218;SDS011;63801;49.414;19.474;2023-02-18T06:47:42;10.57;;;5.97;;
75218;SDS011;63801;49.414;19.474;2023-02-18T06:49:49;11.82;;;5.90;;
75218;SDS011;63801;49.414;19.474;2023-02-18T06:51:52;10.98;;;5.80;;
75218;SDS011;63801;49.414;19.474;2023-02-18T06:54:02;10.77;;;5.60;;
75218;SDS011;63801;49.414;19.474;2023-02-18T06:56:03;13.90;;;10.38;;
75218;SDS011;63801;49.414;19.474;2023-02-18T06:58:03;9.90;;;4.78;;
75218;SDS011;63801;49.414;19.474;2023-02-18T07:00:04;8.50;;;4.93;;
75218;SDS011;63801;49.414;19.474;2023-02-18T07:02:17;14.00;;;5.72;;
75218;SDS011;63801;49.414;19.474;2023-02-18T07:04:18;30.20;;;10.40;;
75218;SDS011;63801;49.414;19.474;2023-02-18T07:06:18;11.75;;;5.57;;
75218;SDS011;63801;49.414;19.474;2023-02-18T07:08:18;13.52;;;5.40;;
75218;SDS011;63801;49.414;19.474;2023-02-18T07:10:18;16.65;;;6.45;;
75218;SDS011;63801;49.414;19.474;2023-02-18T07:12:19;12.55;;;7.07;;
75218;SDS011;63801;49.414;19.474;2023-02-18T07:14:19;12.00;;;6.10;;
75218;SDS011;63801;49.414;19.474;2023-02-18T07:16:20;10.70;;;5.65;;
75218;SDS011;63801;49.414;19.474;2023-02-18T07:18:23;10.70;;;5.82;;
75218;SDS011;63801;49.414;19.474;2023-02-18T07:20:24;13.02;;;6.05;;
75218;SDS011;63801;49.414;19.474;2023-02-18T07:22:25;10.82;;;6.30;;
75218;SDS011;63801;49.414;19.474;2023-02-18T07:24:26;9.75;;;4.85;;
75218;SDS011;63801;49.414;19.474;2023-02-18T07:26:26;8.77;;;5.05;;
75218;SDS011;63801;49.414;19.474;2023-02-18T07:28:27;12.80;;;5.90;;
75218;SDS011;63801;49.414;19.474;2023-02-18T07:30:27;16.67;;;6.82;;
75218;SDS011;63801;49.414;19.474;2023-02-18T07:32:27;28.70;;;11.38;;
75218;SDS011;63801;49.414;19.474;2023-02-18T07:34:28;35.40;;;10.98;;
75218;SDS011;63801;49.414;19.474;2023-02-18T07:36:28;36.08;;;11.00;;
75218;SDS011;63801;49.414;19.474;2023-02-18T07:38:29;17.83;;;7.60;;
75218;SDS011;63801;49.414;19.474;2023-02-18T07:40:30;12.70;;;6.35;;
75218;SDS011;63801;49.414;19.474;2023-02-18T07:42:30;11.45;;;5.63;;
75218;SDS011;63801;49.414;19.474;2023-02-18T07:44:30;11.85;;;5.90;;
75218;SDS011;63801;49.414;19.474;2023-02-18T07:46:31;14.95;;;6.53;;
75218;SDS011;63801;49.414;19.474;2023-02-18T07:48:31;10.82;;;5.47;;
75218;SDS011;63801;49.414;19.474;2023-02-18T07:50:31;11.23;;;6.40;;
75218;SDS011;63801;49.414;19.474;2023-02-18T07:52:34;10.50;;;5.47;;
75218;SDS011;63801;49.414;19.474;2023-02-18T07:54:34;12.68;;;6.65;;
75218;SDS011;63801;49.414;19.474;2023-02-18T07:56:35;11.85;;;6.35;;
75218;SDS011;63801;49.414;19.474;2023-02-18T07:58:36;10.57;;;5.82;;
75218;SDS011;63801;49.414;19.474;2023-02-18T08:00:37;11.82;;;6.82;;
75218;SDS011;63801;49.414;19.474;2023-02-18T08:02:37;13.00;;;6.95;;
75218;SDS011;63801;49.414;19.474;2023-02-18T08:04:38;13.57;;;6.30;;
75218;SDS011;63801;49.414;19.474;2023-02-18T08:06:47;12.25;;;6.97;;
75218;SDS011;63801;49.414;19.474;2023-02-18T08:08:48;17.42;;;9.80;;
75218;SDS011;63801;49.414;19.474;2023-02-18T08:10:49;16.73;;;8.98;;
75218;SDS011;63801;49.414;19.474;2023-02-18T08:12:50;13.63;;;6.82;;
75218;SDS011;63801;49.414;19.474;2023-02-18T08:14:50;10.77;;;6.57;;
75218;SDS011;63801;49.414;19.474;2023-02-18T08:16:50;18.17;;;6.38;;
75218;SDS011;63801;49.414;19.474;2023-02-18T08:18:52;12.38;;;6.95;;
75218;SDS011;63801;49.414;19.474;2023-02-18T08:20:53;18.33;;;8.27;;
75218;SDS011;63801;49.414;19.474;2023-02-18T08:22:53;30.20;;;13.63;;
75218;SDS011;63801;49.414;19.474;2023-02-18T08:24:54;17.60;;;8.68;;
75218;SDS011;63801;49.414;19.474;2023-02-18T08:26:55;16.80;;;9.27;;
75218;SDS011;63801;49.414;19.474;2023-02-18T08:28:55;11.00;;;5.75;;
75218;SDS011;63801;49.414;19.474;2023-02-18T08:30:56;12.45;;;7.53;;
75218;SDS011;63801;49.414;19.474;2023-02-18T08:32:57;18.92;;;9.55;;
75218;SDS011;63801;49.414;19.474;2023-02-18T08:34:57;20.33;;;9.23;;
75218;SDS011;63801;49.414;19.474;2023-02-18T08:36:58;19.65;;;10.68;;
75218;SDS011;63801;49.414;19.474;2023-02-18T08:38:58;21.00;;;11.25;;
75218;SDS011;63801;49.414;19.474;2023-02-18T08:41:02;19.58;;;9.35;;
75218;SDS011;63801;49.414;19.474;2023-02-18T08:43:04;18.35;;;9.85;;
75218;SDS011;63801;49.414;19.474;2023-02-18T08:45:05;20.58;;;10.13;;
75218;SDS011;63801;49.414;19.474;2023-02-18T08:47:06;19.98;;;11.50;;
75218;SDS011;63801;49.414;19.474;2023-02-18T08:49:06;28.45;;;15.80;;
75218;SDS011;63801;49.414;19.474;2023-02-18T08:51:17;21.60;;;9.95;;
75218;SDS011;63801;49.414;19.474;2023-02-18T08:53:19;20.07;;;10.33;;
75218;SDS011;63801;49.414;19.474;2023-02-18T08:55:20;20.10;;;9.32;;
75218;SDS011;63801;49.414;19.474;2023-02-18T08:57:20;20.17;;;10.07;;
75218;SDS011;63801;49.414;19.474;2023-02-18T08:59:21;23.20;;;12.52;;
75218;SDS011;63801;49.414;19.474;2023-02-18T09:01:21;20.55;;;10.98;;
75218;SDS011;63801;49.414;19.474;2023-02-18T09:03:21;18.02;;;8.90;;
75218;SDS011;63801;49.414;19.474;2023-02-18T09:05:22;20.50;;;10.38;;
75218;SDS011;63801;49.414;19.474;2023-02-18T09:07:22;16.35;;;8.15;;
75218;SDS011;63801;49.414;19.474;2023-02-18T09:09:22;18.48;;;8.82;;
75218;SDS011;63801;49.414;19.474;2023-02-18T09:11:23;14.18;;;8.73;;
75218;SDS011;63801;49.414;19.474;2023-02-18T09:13:32;12.93;;;7.07;;
75218;SDS011;63801;49.414;19.474;2023-02-18T09:15:33;11.88;;;6.60;;
75218;SDS011;63801;49.414;19.474;2023-02-18T09:17:33;9.70;;;6.25;;
75218;SDS011;63801;49.414;19.474;2023-02-18T09:19:43;12.23;;;6.47;;
75218;SDS011;63801;49.414;19.474;2023-02-18T09:21:46;19.13;;;9.95;;
75218;SDS011;63801;49.414;19.474;2023-02-18T09:23:47;17.88;;;9.60;;
75218;SDS011;63801;49.414;19.474;2023-02-18T09:25:48;14.50;;;8.00;;
75218;SDS011;63801;49.414;19.474;2023-02-18T09:27:48;15.90;;;9.55;;
75218;SDS011;63801;49.414;19.474;2023-02-18T09:29:49;15.60;;;8.57;;
75218;SDS011;63801;49.414;19.474;2023-02-18T09:31:49;12.13;;;7.18;;
75218;SDS011;63801;49.414;19.474;2023-02-18T09:33:51;13.35;;;6.38;;
75218;SDS011;63801;49.414;19.474;2023-02-18T09:35:59;12.45;;;7.50;;
75218;SDS011;63801;49.414;19.474;2023-02-18T09:38:00;12.95;;;7.22;;
75218;SDS011;63801;49.414;19.474;2023-02-18T09:40:01;17.58;;;7.68;;
75218;SDS011;63801;49.414;19.474;2023-02-18T09:42:12;14.60;;;7.63;;
75218;SDS011;63801;49.414;19.474;2023-02-18T09:44:24;9.05;;;5.65;;
75218;SDS011;63801;49.414;19.474;2023-02-18T09:46:32;10.30;;;6.35;;
75218;SDS011;63801;49.414;19.474;2023-02-18T09:49:02;11.65;;;6.78;;
75218;SDS011;63801;49.414;19.474;2023-02-18T09:51:06;15.30;;;7.70;;
75218;SDS011;63801;49.414;19.474;2023-02-18T09:53:12;13.85;;;6.53;;
75218;SDS011;63801;49.414;19.474;2023-02-18T09:55:32;12.40;;;6.07;;
75218;SDS011;63801;49.414;19.474;2023-02-18T09:57:42;12.02;;;6.18;;
75218;SDS011;63801;49.414;19.474;2023-02-18T10:00:12;11.05;;;6.50;;
75218;SDS011;63801;49.414;19.474;2023-02-18T10:02:17;12.00;;;6.25;;
75218;SDS011;63801;49.414;19.474;2023-02-18T10:04:34;13.77;;;6.78;;
75218;SDS011;63801;49.414;19.474;2023-02-18T10:06:52;10.82;;;6.25;;
75218;SDS011;63801;49.414;19.474;2023-02-18T10:09:01;14.13;;;7.57;;
75218;SDS011;63801;49.414;19.474;2023-02-18T10:11:09;13.48;;;6.75;;
75218;SDS011;63801;49.414;19.474;2023-02-18T10:13:39;13.27;;;7.35;;
75218;SDS011;63801;49.414;19.474;2023-02-18T10:15:40;10.27;;;6.30;;
75218;SDS011;63801;49.414;19.474;2023-02-18T10:17:42;12.02;;;7.20;;
75218;SDS011;63801;49.414;19.474;2023-02-18T10:19:52;14.40;;;7.90;;
75218;SDS011;63801;49.414;19.474;2023-02-18T10:22:05;10.60;;;6.88;;
75218;SDS011;63801;49.414;19.474;2023-02-18T10:24:18;19.10;;;8.57;;
75218;SDS011;63801;49.414;19.474;2023-02-18T10:26:21;16.80;;;7.45;;
75218;SDS011;63801;49.414;19.474;2023-02-18T10:28:22;13.02;;;5.55;;
75218;SDS011;63801;49.414;19.474;2023-02-18T10:30:32;13.10;;;6.53;;
75218;SDS011;63801;49.414;19.474;2023-02-18T10:32:38;11.70;;;6.68;;
75218;SDS011;63801;49.414;19.474;2023-02-18T10:34:45;10.27;;;5.32;;
75218;SDS011;63801;49.414;19.474;2023-02-18T10:39:33;10.18;;;5.45;;
75218;SDS011;63801;49.414;19.474;2023-02-18T10:44:08;12.23;;;5.75;;
75218;SDS011;63801;49.414;19.474;2023-02-18T10:51:13;17.33;;;8.18;;
75218;SDS011;63801;49.414;19.474;2023-02-18T10:53:32;14.02;;;6.05;;
75218;SDS011;63801;49.414;19.474;2023-02-18T10:55:36;15.88;;;5.80;;
75218;SDS011;63801;49.414;19.474;2023-02-18T10:57:44;8.18;;;5.13;;
75218;SDS011;63801;49.414;19.474;2023-02-18T10:59:54;19.25;;;8.65;;
75218;SDS011;63801;49.414;19.474;2023-02-18T11:02:13;15.60;;;7.43;;
75218;SDS011;63801;49.414;19.474;2023-02-18T11:04:17;11.75;;;5.38;;
75218;SDS011;63801;49.414;19.474;2023-02-18T11:08:31;7.28;;;3.95;;
75218;SDS011;63801;49.414;19.474;2023-02-18T11:10:42;16.90;;;7.38;;
75218;SDS011;63801;49.414;19.474;2023-02-18T11:15:33;8.85;;;5.13;;
75218;SDS011;63801;49.414;19.474;2023-02-18T11:17:30;14.52;;;8.20;;
75218;SDS011;63801;49.414;19.474;2023-02-18T11:19:37;17.33;;;9.70;;
75218;SDS011;63801;49.414;19.474;2023-02-18T11:21:38;15.18;;;7.40;;
75218;SDS011;63801;49.414;19.474;2023-02-18T11:23:44;24.55;;;12.23;;
75218;SDS011;63801;49.414;19.474;2023-02-18T11:30:25;20.92;;;11.32;;
75218;SDS011;63801;49.414;19.474;2023-02-18T11:32:33;9.70;;;4.68;;
75218;SDS011;63801;49.414;19.474;2023-02-18T11:34:34;9.68;;;5.38;;
75218;SDS011;63801;49.414;19.474;2023-02-18T11:36:36;9.13;;;5.30;;
75218;SDS011;63801;49.414;19.474;2023-02-18T11:38:42;11.50;;;5.55;;
75218;SDS011;63801;49.414;19.474;2023-02-18T11:40:54;7.65;;;4.10;;
75218;SDS011;63801;49.414;19.474;2023-02-18T11:43:05;12.52;;;6.28;;
75218;SDS011;63801;49.414;19.474;2023-02-18T11:47:35;16.70;;;9.38;;
75218;SDS011;63801;49.414;19.474;2023-02-18T11:49:36;26.15;;;11.48;;
75218;SDS011;63801;49.414;19.474;2023-02-18T11:51:37;9.45;;;4.43;;
75218;SDS011;63801;49.414;19.474;2023-02-18T11:53:50;12.40;;;4.72;;
75218;SDS011;63801;49.414;19.474;2023-02-18T11:56:08;17.40;;;7.90;;
75218;SDS011;63801;49.414;19.474;2023-02-18T11:58:16;14.60;;;7.07;;
75218;SDS011;63801;49.414;19.474;2023-02-18T12:02:45;19.30;;;9.38;;
75218;SDS011;63801;49.414;19.474;2023-02-18T12:04:51;11.00;;;6.07;;
75218;SDS011;63801;49.414;19.474;2023-02-18T12:09:42;19.83;;;9.23;;
75218;SDS011;63801;49.414;19.474;2023-02-18T12:11:48;26.23;;;11.77;;
75218;SDS011;63801;49.414;19.474;2023-02-18T12:13:55;36.92;;;16.58;;
75218;SDS011;63801;49.414;19.474;2023-02-18T12:27:55;30.55;;;11.13;;
75218;SDS011;63801;49.414;19.474;2023-02-18T12:32:29;28.90;;;10.52;;
75218;SDS011;63801;49.414;19.474;2023-02-18T12:40:20;21.00;;;10.38;;
75218;SDS011;63801;49.414;19.474;2023-02-18T12:52:06;18.27;;;9.93;;
75218;SDS011;63801;49.414;19.474;2023-02-18T13:00:59;14.45;;;7.78;;
75218;SDS011;63801;49.414;19.474;2023-02-18T13:07:42;18.95;;;8.77;;
75218;SDS011;63801;49.414;19.474;2023-02-18T13:12:27;28.30;;;9.95;;
75218;SDS011;63801;49.414;19.474;2023-02-18T13:14:54;17.55;;;7.57;;
75218;SDS011;63801;49.414;19.474;2023-02-18T13:17:00;24.27;;;11.35;;
75218;SDS011;63801;49.414;19.474;2023-02-18T13:19:07;18.83;;;9.45;;
75218;SDS011;63801;49.414;19.474;2023-02-18T13:21:17;23.95;;;11.85;;
75218;SDS011;63801;49.414;19.474;2023-02-18T13:23:37;30.83;;;12.45;;
75218;SDS011;63801;49.414;19.474;2023-02-18T13:25:57;20.55;;;9.48;;
75218;SDS011;63801;49.414;19.474;2023-02-18T13:32:35;11.75;;;5.13;;
75218;SDS011;63801;49.414;19.474;2023-02-18T13:34:50;31.27;;;13.35;;
75218;SDS011;63801;49.414;19.474;2023-02-18T13:37:14;21.55;;;9.73;;
75218;SDS011;63801;49.414;19.474;2023-02-18T13:39:15;20.92;;;9.77;;
75218;SDS011;63801;49.414;19.474;2023-02-18T13:41:19;21.48;;;9.32;;
75218;SDS011;63801;49.414;19.474;2023-02-18T13:43:28;16.15;;;7.63;;
75218;SDS011;63801;49.414;19.474;2023-02-18T13:45:33;25.85;;;11.98;;
75218;SDS011;63801;49.414;19.474;2023-02-18T13:47:43;22.40;;;9.68;;
75218;SDS011;63801;49.414;19.474;2023-02-18T13:49:45;17.60;;;9.23;;
75218;SDS011;63801;49.414;19.474;2023-02-18T13:51:47;17.38;;;8.80;;
75218;SDS011;63801;49.414;19.474;2023-02-18T13:53:50;21.48;;;10.98;;
75218;SDS011;63801;49.414;19.474;2023-02-18T13:55:57;21.13;;;10.23;;
75218;SDS011;63801;49.414;19.474;2023-02-18T13:58:02;17.55;;;7.88;;
75218;SDS011;63801;49.414;19.474;2023-02-18T14:00:03;27.52;;;11.35;;
75218;SDS011;63801;49.414;19.474;2023-02-18T14:06:39;16.08;;;6.85;;
75218;SDS011;63801;49.414;19.474;2023-02-18T14:11:24;18.15;;;7.85;;